sensor_id;sensor_type;location;lat;lon;timestamp;P1;durP1;ratioP1;P2;durP2;ratioP2
34832;SDS011;55941;50.800;4.342;2022-09-09T00:02:27;6.70;;;1.40;;
34832;SDS011;55941;50.800;4.342;2022-09-09T00:05:04;3.90;;;1.20;;
34832;SDS011;55941;50.800;4.342;2022-09-09T00:07:54;4.65;;;1.10;;
34832;SDS011;55941;50.800;4.342;2022-09-09T00:10:27;5.60;;;1.23;;
34832;SDS011;55941;50.800;4.342;2022-09-09T00:13:13;4.18;;;1.35;;
34832;SDS011;55941;50.800;4.342;2022-09-09T00:15:57;7.88;;;1.83;;
34832;SDS011;55941;50.800;4.342;2022-09-09T00:21:34;5.93;;;1.27;;
34832;SDS011;55941;50.800;4.342;2022-09-09T00:24:07;10.73;;;1.42;;
34832;SDS011;55941;50.800;4.342;2022-09-09T00:26:56;9.82;;;1.23;;
34832;SDS011;55941;50.800;4.342;2022-09-09T00:32:44;5.60;;;1.15;;
34832;SDS011;55941;50.800;4.342;2022-09-09T00:35:18;8.70;;;1.33;;
34832;SDS011;55941;50.800;4.342;2022-09-09T00:37:50;9.20;;;1.65;;
34832;SDS011;55941;50.800;4.342;2022-09-09T00:40:24;12.18;;;1.27;;
34832;SDS011;55941;50.800;4.342;2022-09-09T00:56:43;7.43;;;1.80;;
34832;SDS011;55941;50.800;4.342;2022-09-09T01:01:48;6.88;;;1.30;;
34832;SDS011;55941;50.800;4.342;2022-09-09T01:04:20;6.45;;;1.23;;
34832;SDS011;55941;50.800;4.342;2022-09-09T01:06:53;12.02;;;1.80;;
34832;SDS011;55941;50.800;4.342;2022-09-09T01:12:24;9.43;;;1.15;;
34832;SDS011;55941;50.800;4.342;2022-09-09T01:14:51;11.38;;;1.60;;
34832;SDS011;55941;50.800;4.342;2022-09-09T01:17:31;11.93;;;1.67;;
34832;SDS011;55941;50.800;4.342;2022-09-09T01:22:44;9.25;;;1.60;;
34832;SDS011;55941;50.800;4.342;2022-09-09T01:28:28;13.85;;;2.00;;
34832;SDS011;55941;50.800;4.342;2022-09-09T01:30:55;10.68;;;1.38;;
34832;SDS011;55941;50.800;4.342;2022-09-09T01:33:22;12.55;;;2.85;;
34832;SDS011;55941;50.800;4.342;2022-09-09T01:35:59;8.75;;;1.77;;
34832;SDS011;55941;50.800;4.342;2022-09-09T01:38:27;9.55;;;1.83;;
34832;SDS011;55941;50.800;4.342;2022-09-09T01:40:54;6.00;;;1.67;;
34832;SDS011;55941;50.800;4.342;2022-09-09T01:43:21;4.05;;;1.42;;
34832;SDS011;55941;50.800;4.342;2022-09-09T01:45:48;10.98;;;2.03;;
34832;SDS011;55941;50.800;4.342;2022-09-09T01:48:18;12.95;;;1.77;;
34832;SDS011;55941;50.800;4.342;2022-09-09T01:50:45;15.77;;;2.55;;
34832;SDS011;55941;50.800;4.342;2022-09-09T01:53:11;18.13;;;1.95;;
34832;SDS011;55941;50.800;4.342;2022-09-09T01:55:40;14.50;;;2.03;;
34832;SDS011;55941;50.800;4.342;2022-09-09T01:58:23;11.40;;;2.03;;
34832;SDS011;55941;50.800;4.342;2022-09-09T02:00:56;10.30;;;2.20;;
34832;SDS011;55941;50.800;4.342;2022-09-09T02:03:38;9.13;;;2.10;;
34832;SDS011;55941;50.800;4.342;2022-09-09T02:06:28;12.75;;;2.70;;
34832;SDS011;55941;50.800;4.342;2022-09-09T02:08:57;13.82;;;2.38;;
34832;SDS011;55941;50.800;4.342;2022-09-09T02:11:26;18.42;;;3.03;;
34832;SDS011;55941;50.800;4.342;2022-09-09T02:14:12;21.42;;;2.40;;
34832;SDS011;55941;50.800;4.342;2022-09-09T02:16:47;11.60;;;2.15;;
34832;SDS011;55941;50.800;4.342;2022-09-09T02:19:25;12.13;;;2.22;;
34832;SDS011;55941;50.800;4.342;2022-09-09T02:21:57;8.13;;;1.90;;
34832;SDS011;55941;50.800;4.342;2022-09-09T02:24:26;23.20;;;3.17;;
34832;SDS011;55941;50.800;4.342;2022-09-09T02:26:54;14.88;;;2.28;;
34832;SDS011;55941;50.800;4.342;2022-09-09T02:29:24;14.32;;;2.08;;
34832;SDS011;55941;50.800;4.342;2022-09-09T02:31:53;15.98;;;2.35;;
34832;SDS011;55941;50.800;4.342;2022-09-09T02:34:24;14.30;;;2.40;;
34832;SDS011;55941;50.800;4.342;2022-09-09T02:36:52;13.48;;;2.05;;
34832;SDS011;55941;50.800;4.342;2022-09-09T02:39:20;19.83;;;2.60;;
34832;SDS011;55941;50.800;4.342;2022-09-09T02:41:45;19.15;;;2.10;;
34832;SDS011;55941;50.800;4.342;2022-09-09T02:44:15;12.52;;;1.70;;
34832;SDS011;55941;50.800;4.342;2022-09-09T02:52:52;15.65;;;2.13;;
34832;SDS011;55941;50.800;4.342;2022-09-09T02:58:14;19.23;;;2.38;;
34832;SDS011;55941;50.800;4.342;2022-09-09T03:00:42;11.88;;;2.20;;
34832;SDS011;55941;50.800;4.342;2022-09-09T03:03:10;10.10;;;1.85;;
34832;SDS011;55941;50.800;4.342;2022-09-09T03:05:37;23.63;;;2.95;;
34832;SDS011;55941;50.800;4.342;2022-09-09T03:08:04;11.35;;;2.53;;
34832;SDS011;55941;50.800;4.342;2022-09-09T03:10:31;13.32;;;2.10;;
34832;SDS011;55941;50.800;4.342;2022-09-09T03:12:57;15.57;;;2.33;;
34832;SDS011;55941;50.800;4.342;2022-09-09T03:15:23;12.85;;;2.15;;
34832;SDS011;55941;50.800;4.342;2022-09-09T03:17:48;18.00;;;2.22;;
34832;SDS011;55941;50.800;4.342;2022-09-09T03:20:14;10.23;;;2.38;;
34832;SDS011;55941;50.800;4.342;2022-09-09T03:22:40;16.13;;;2.10;;
34832;SDS011;55941;50.800;4.342;2022-09-09T03:25:05;13.68;;;1.88;;
34832;SDS011;55941;50.800;4.342;2022-09-09T03:27:31;16.63;;;2.53;;
34832;SDS011;55941;50.800;4.342;2022-09-09T03:29:57;17.67;;;2.55;;
34832;SDS011;55941;50.800;4.342;2022-09-09T03:32:23;14.55;;;2.17;;
34832;SDS011;55941;50.800;4.342;2022-09-09T03:34:51;18.27;;;2.70;;
34832;SDS011;55941;50.800;4.342;2022-09-09T03:37:18;14.45;;;2.17;;
34832;SDS011;55941;50.800;4.342;2022-09-09T03:39:45;20.88;;;3.33;;
34832;SDS011;55941;50.800;4.342;2022-09-09T03:42:14;12.48;;;2.00;;
34832;SDS011;55941;50.800;4.342;2022-09-09T03:44:44;12.70;;;2.10;;
34832;SDS011;55941;50.800;4.342;2022-09-09T03:47:15;12.82;;;2.53;;
34832;SDS011;55941;50.800;4.342;2022-09-09T03:49:46;15.95;;;2.33;;
34832;SDS011;55941;50.800;4.342;2022-09-09T03:52:14;13.43;;;2.53;;
34832;SDS011;55941;50.800;4.342;2022-09-09T03:54:40;18.92;;;2.53;;
34832;SDS011;55941;50.800;4.342;2022-09-09T03:57:08;15.65;;;2.15;;
34832;SDS011;55941;50.800;4.342;2022-09-09T03:59:35;17.50;;;2.50;;
34832;SDS011;55941;50.800;4.342;2022-09-09T04:02:01;20.65;;;2.33;;
34832;SDS011;55941;50.800;4.342;2022-09-09T04:04:27;17.70;;;2.50;;
34832;SDS011;55941;50.800;4.342;2022-09-09T04:06:53;22.40;;;2.75;;
34832;SDS011;55941;50.800;4.342;2022-09-09T04:09:19;14.82;;;2.90;;
34832;SDS011;55941;50.800;4.342;2022-09-09T04:11:45;19.05;;;2.15;;
34832;SDS011;55941;50.800;4.342;2022-09-09T04:14:11;19.15;;;2.85;;
34832;SDS011;55941;50.800;4.342;2022-09-09T04:16:37;13.60;;;2.00;;
34832;SDS011;55941;50.800;4.342;2022-09-09T04:19:04;15.07;;;2.53;;
34832;SDS011;55941;50.800;4.342;2022-09-09T04:21:32;15.75;;;2.78;;
34832;SDS011;55941;50.800;4.342;2022-09-09T04:23:58;19.52;;;2.65;;
34832;SDS011;55941;50.800;4.342;2022-09-09T04:26:24;19.40;;;3.45;;
34832;SDS011;55941;50.800;4.342;2022-09-09T04:28:50;23.48;;;3.08;;
34832;SDS011;55941;50.800;4.342;2022-09-09T04:31:21;19.05;;;3.38;;
34832;SDS011;55941;50.800;4.342;2022-09-09T04:33:50;13.27;;;2.63;;
34832;SDS011;55941;50.800;4.342;2022-09-09T04:36:16;16.00;;;2.53;;
34832;SDS011;55941;50.800;4.342;2022-09-09T04:38:46;19.90;;;2.67;;
34832;SDS011;55941;50.800;4.342;2022-09-09T04:41:13;18.50;;;2.72;;
34832;SDS011;55941;50.800;4.342;2022-09-09T04:43:39;24.50;;;3.45;;
34832;SDS011;55941;50.800;4.342;2022-09-09T04:46:06;20.35;;;2.83;;
34832;SDS011;55941;50.800;4.342;2022-09-09T04:48:32;24.98;;;2.80;;
34832;SDS011;55941;50.800;4.342;2022-09-09T04:50:59;16.42;;;2.38;;
34832;SDS011;55941;50.800;4.342;2022-09-09T04:56:07;10.82;;;2.45;;
34832;SDS011;55941;50.800;4.342;2022-09-09T04:58:38;16.02;;;2.42;;
34832;SDS011;55941;50.800;4.342;2022-09-09T05:03:37;15.35;;;2.10;;
34832;SDS011;55941;50.800;4.342;2022-09-09T05:06:10;16.80;;;2.53;;
34832;SDS011;55941;50.800;4.342;2022-09-09T05:08:37;24.60;;;3.78;;
34832;SDS011;55941;50.800;4.342;2022-09-09T05:11:12;19.13;;;3.13;;
34832;SDS011;55941;50.800;4.342;2022-09-09T05:13:46;16.80;;;2.70;;
34832;SDS011;55941;50.800;4.342;2022-09-09T05:16:13;17.80;;;2.88;;
34832;SDS011;55941;50.800;4.342;2022-09-09T05:18:40;24.35;;;3.10;;
34832;SDS011;55941;50.800;4.342;2022-09-09T05:21:07;20.73;;;3.75;;
34832;SDS011;55941;50.800;4.342;2022-09-09T05:23:34;16.00;;;2.88;;
34832;SDS011;55941;50.800;4.342;2022-09-09T05:26:00;23.25;;;3.50;;
34832;SDS011;55941;50.800;4.342;2022-09-09T05:28:26;16.80;;;2.70;;
34832;SDS011;55941;50.800;4.342;2022-09-09T05:31:00;14.43;;;2.80;;
34832;SDS011;55941;50.800;4.342;2022-09-09T05:33:29;18.60;;;2.72;;
34832;SDS011;55941;50.800;4.342;2022-09-09T05:36:03;15.27;;;3.38;;
34832;SDS011;55941;50.800;4.342;2022-09-09T05:38:32;15.43;;;2.85;;
34832;SDS011;55941;50.800;4.342;2022-09-09T05:40:59;13.15;;;2.92;;
34832;SDS011;55941;50.800;4.342;2022-09-09T05:43:27;19.30;;;3.03;;
34832;SDS011;55941;50.800;4.342;2022-09-09T05:46:04;23.65;;;3.35;;
34832;SDS011;55941;50.800;4.342;2022-09-09T05:48:31;20.88;;;2.67;;
34832;SDS011;55941;50.800;4.342;2022-09-09T05:50:58;17.92;;;3.05;;
34832;SDS011;55941;50.800;4.342;2022-09-09T05:53:25;15.63;;;2.58;;
34832;SDS011;55941;50.800;4.342;2022-09-09T05:56:02;18.17;;;3.63;;
34832;SDS011;55941;50.800;4.342;2022-09-09T05:58:32;18.08;;;2.90;;
34832;SDS011;55941;50.800;4.342;2022-09-09T06:01:09;16.27;;;2.88;;
34832;SDS011;55941;50.800;4.342;2022-09-09T06:03:37;20.75;;;3.15;;
34832;SDS011;55941;50.800;4.342;2022-09-09T06:06:05;21.73;;;3.42;;
34832;SDS011;55941;50.800;4.342;2022-09-09T06:08:33;16.38;;;2.45;;
34832;SDS011;55941;50.800;4.342;2022-09-09T06:13:30;15.82;;;2.85;;
34832;SDS011;55941;50.800;4.342;2022-09-09T06:15:56;17.48;;;2.97;;
34832;SDS011;55941;50.800;4.342;2022-09-09T06:18:23;24.95;;;3.00;;
34832;SDS011;55941;50.800;4.342;2022-09-09T06:21:00;16.13;;;2.92;;
34832;SDS011;55941;50.800;4.342;2022-09-09T06:23:29;22.92;;;2.75;;
34832;SDS011;55941;50.800;4.342;2022-09-09T06:26:03;14.60;;;2.30;;
34832;SDS011;55941;50.800;4.342;2022-09-09T06:28:30;20.45;;;2.58;;
34832;SDS011;55941;50.800;4.342;2022-09-09T06:31:01;16.33;;;2.38;;
34832;SDS011;55941;50.800;4.342;2022-09-09T06:33:39;26.92;;;3.50;;
34832;SDS011;55941;50.800;4.342;2022-09-09T06:36:13;22.92;;;2.80;;
34832;SDS011;55941;50.800;4.342;2022-09-09T06:38:41;14.45;;;2.50;;
34832;SDS011;55941;50.800;4.342;2022-09-09T06:41:07;14.32;;;2.38;;
34832;SDS011;55941;50.800;4.342;2022-09-09T06:43:34;17.48;;;2.40;;
34832;SDS011;55941;50.800;4.342;2022-09-09T06:46:17;15.23;;;2.63;;
34832;SDS011;55941;50.800;4.342;2022-09-09T06:48:47;19.85;;;3.53;;
34832;SDS011;55941;50.800;4.342;2022-09-09T06:53:41;20.17;;;2.83;;
34832;SDS011;55941;50.800;4.342;2022-09-09T06:58:35;20.70;;;2.83;;
34832;SDS011;55941;50.800;4.342;2022-09-09T07:01:11;15.27;;;2.85;;
34832;SDS011;55941;50.800;4.342;2022-09-09T07:03:39;15.88;;;2.80;;
34832;SDS011;55941;50.800;4.342;2022-09-09T07:06:05;14.95;;;3.05;;
34832;SDS011;55941;50.800;4.342;2022-09-09T07:08:32;17.42;;;2.78;;
34832;SDS011;55941;50.800;4.342;2022-09-09T07:11:04;19.10;;;2.60;;
34832;SDS011;55941;50.800;4.342;2022-09-09T07:13:32;15.35;;;2.50;;
34832;SDS011;55941;50.800;4.342;2022-09-09T07:16:05;14.52;;;2.58;;
34832;SDS011;55941;50.800;4.342;2022-09-09T07:18:39;14.10;;;3.13;;
34832;SDS011;55941;50.800;4.342;2022-09-09T07:21:05;21.08;;;3.30;;
34832;SDS011;55941;50.800;4.342;2022-09-09T07:23:31;16.80;;;2.80;;
34832;SDS011;55941;50.800;4.342;2022-09-09T07:25:57;15.43;;;3.05;;
34832;SDS011;55941;50.800;4.342;2022-09-09T07:28:24;16.73;;;2.83;;
34832;SDS011;55941;50.800;4.342;2022-09-09T07:30:58;16.33;;;2.55;;
34832;SDS011;55941;50.800;4.342;2022-09-09T07:33:28;21.27;;;3.22;;
34832;SDS011;55941;50.800;4.342;2022-09-09T07:36:02;15.93;;;2.72;;
34832;SDS011;55941;50.800;4.342;2022-09-09T07:38:42;19.33;;;3.10;;
34832;SDS011;55941;50.800;4.342;2022-09-09T07:41:11;13.43;;;2.92;;
34832;SDS011;55941;50.800;4.342;2022-09-09T07:43:39;16.77;;;3.53;;
34832;SDS011;55941;50.800;4.342;2022-09-09T07:46:06;14.52;;;2.47;;
34832;SDS011;55941;50.800;4.342;2022-09-09T07:48:32;14.73;;;2.88;;
34832;SDS011;55941;50.800;4.342;2022-09-09T07:51:07;18.50;;;3.05;;
34832;SDS011;55941;50.800;4.342;2022-09-09T07:53:40;13.43;;;3.20;;
34832;SDS011;55941;50.800;4.342;2022-09-09T07:56:07;15.40;;;3.17;;
34832;SDS011;55941;50.800;4.342;2022-09-09T07:58:35;17.35;;;2.63;;
34832;SDS011;55941;50.800;4.342;2022-09-09T08:01:06;14.25;;;2.67;;
34832;SDS011;55941;50.800;4.342;2022-09-09T08:03:33;15.77;;;2.85;;
34832;SDS011;55941;50.800;4.342;2022-09-09T08:06:00;17.15;;;3.05;;
34832;SDS011;55941;50.800;4.342;2022-09-09T08:08:27;21.67;;;2.95;;
34832;SDS011;55941;50.800;4.342;2022-09-09T08:10:53;20.50;;;3.38;;
34832;SDS011;55941;50.800;4.342;2022-09-09T08:13:18;14.65;;;2.60;;
34832;SDS011;55941;50.800;4.342;2022-09-09T08:15:44;12.20;;;2.55;;
34832;SDS011;55941;50.800;4.342;2022-09-09T08:18:10;14.18;;;2.42;;
34832;SDS011;55941;50.800;4.342;2022-09-09T08:20:36;19.00;;;3.22;;
34832;SDS011;55941;50.800;4.342;2022-09-09T08:23:02;16.05;;;2.97;;
34832;SDS011;55941;50.800;4.342;2022-09-09T08:25:29;21.73;;;3.38;;
34832;SDS011;55941;50.800;4.342;2022-09-09T08:27:56;10.52;;;2.33;;
34832;SDS011;55941;50.800;4.342;2022-09-09T08:30:22;19.98;;;3.10;;
34832;SDS011;55941;50.800;4.342;2022-09-09T08:32:48;9.63;;;2.03;;
34832;SDS011;55941;50.800;4.342;2022-09-09T08:35:16;13.80;;;3.30;;
34832;SDS011;55941;50.800;4.342;2022-09-09T08:37:42;15.27;;;2.78;;
34832;SDS011;55941;50.800;4.342;2022-09-09T08:40:09;11.68;;;2.78;;
34832;SDS011;55941;50.800;4.342;2022-09-09T08:42:51;21.10;;;3.28;;
34832;SDS011;55941;50.800;4.342;2022-09-09T08:48:10;9.75;;;2.40;;
34832;SDS011;55941;50.800;4.342;2022-09-09T08:51:00;22.17;;;3.75;;
34832;SDS011;55941;50.800;4.342;2022-09-09T08:53:28;16.00;;;2.33;;
34832;SDS011;55941;50.800;4.342;2022-09-09T08:56:04;12.05;;;2.38;;
34832;SDS011;55941;50.800;4.342;2022-09-09T08:58:40;13.70;;;2.47;;
34832;SDS011;55941;50.800;4.342;2022-09-09T09:12:07;22.70;;;3.30;;
34832;SDS011;55941;50.800;4.342;2022-09-09T09:14:25;15.85;;;2.90;;
34832;SDS011;55941;50.800;4.342;2022-09-09T09:19:52;13.32;;;2.92;;
34832;SDS011;55941;50.800;4.342;2022-09-09T09:32:38;15.88;;;3.08;;
34832;SDS011;55941;50.800;4.342;2022-09-09T09:35:06;13.85;;;2.55;;
34832;SDS011;55941;50.800;4.342;2022-09-09T09:37:39;13.88;;;2.80;;
34832;SDS011;55941;50.800;4.342;2022-09-09T09:40:13;17.83;;;2.92;;
34832;SDS011;55941;50.800;4.342;2022-09-09T09:43:01;19.75;;;4.35;;
34832;SDS011;55941;50.800;4.342;2022-09-09T09:45:34;18.30;;;2.70;;
34832;SDS011;55941;50.800;4.342;2022-09-09T09:48:09;19.67;;;2.95;;
34832;SDS011;55941;50.800;4.342;2022-09-09T09:50:46;17.23;;;2.92;;
34832;SDS011;55941;50.800;4.342;2022-09-09T09:53:32;16.27;;;2.85;;
34832;SDS011;55941;50.800;4.342;2022-09-09T09:56:01;15.43;;;2.63;;
34832;SDS011;55941;50.800;4.342;2022-09-09T09:58:47;13.63;;;2.72;;
34832;SDS011;55941;50.800;4.342;2022-09-09T10:01:49;13.27;;;2.88;;
34832;SDS011;55941;50.800;4.342;2022-09-09T10:04:14;13.32;;;2.75;;
34832;SDS011;55941;50.800;4.342;2022-09-09T10:06:44;16.25;;;3.25;;
34832;SDS011;55941;50.800;4.342;2022-09-09T10:09:26;15.60;;;3.33;;
34832;SDS011;55941;50.800;4.342;2022-09-09T10:12:05;11.02;;;2.53;;
34832;SDS011;55941;50.800;4.342;2022-09-09T10:15:01;21.95;;;3.00;;
34832;SDS011;55941;50.800;4.342;2022-09-09T10:20:40;13.63;;;2.75;;
34832;SDS011;55941;50.800;4.342;2022-09-09T10:31:34;12.98;;;2.28;;
34832;SDS011;55941;50.800;4.342;2022-09-09T10:43:08;10.77;;;2.03;;
34832;SDS011;55941;50.800;4.342;2022-09-09T10:45:37;12.57;;;2.50;;
34832;SDS011;55941;50.800;4.342;2022-09-09T10:48:31;22.08;;;2.78;;
34832;SDS011;55941;50.800;4.342;2022-09-09T10:51:06;15.85;;;2.90;;
34832;SDS011;55941;50.800;4.342;2022-09-09T10:53:53;14.45;;;2.90;;
34832;SDS011;55941;50.800;4.342;2022-09-09T10:56:38;14.35;;;2.83;;
34832;SDS011;55941;50.800;4.342;2022-09-09T10:59:08;13.43;;;2.00;;
34832;SDS011;55941;50.800;4.342;2022-09-09T11:01:46;15.52;;;2.50;;
34832;SDS011;55941;50.800;4.342;2022-09-09T11:10:21;10.25;;;2.45;;
34832;SDS011;55941;50.800;4.342;2022-09-09T11:13:24;13.77;;;2.60;;
34832;SDS011;55941;50.800;4.342;2022-09-09T11:16:05;11.07;;;2.50;;
34832;SDS011;55941;50.800;4.342;2022-09-09T11:18:46;6.20;;;1.83;;
34832;SDS011;55941;50.800;4.342;2022-09-09T11:21:17;15.23;;;2.28;;
34832;SDS011;55941;50.800;4.342;2022-09-09T11:24:03;13.70;;;2.58;;
34832;SDS011;55941;50.800;4.342;2022-09-09T11:26:39;13.48;;;2.85;;
34832;SDS011;55941;50.800;4.342;2022-09-09T11:34:39;20.85;;;2.97;;
34832;SDS011;55941;50.800;4.342;2022-09-09T11:42:40;12.48;;;2.38;;
34832;SDS011;55941;50.800;4.342;2022-09-09T11:45:11;16.30;;;2.45;;
34832;SDS011;55941;50.800;4.342;2022-09-09T11:47:58;9.77;;;2.63;;
34832;SDS011;55941;50.800;4.342;2022-09-09T11:52:51;6.53;;;1.60;;
34832;SDS011;55941;50.800;4.342;2022-09-09T11:55:32;17.77;;;2.35;;
34832;SDS011;55941;50.800;4.342;2022-09-09T12:00:34;14.73;;;2.20;;
34832;SDS011;55941;50.800;4.342;2022-09-09T12:03:28;7.75;;;1.92;;
34832;SDS011;55941;50.800;4.342;2022-09-09T12:05:57;10.68;;;2.38;;
34832;SDS011;55941;50.800;4.342;2022-09-09T12:08:28;12.20;;;1.88;;
34832;SDS011;55941;50.800;4.342;2022-09-09T12:10:57;12.27;;;2.45;;
34832;SDS011;55941;50.800;4.342;2022-09-09T12:13:25;13.75;;;1.92;;
34832;SDS011;55941;50.800;4.342;2022-09-09T12:15:53;11.75;;;2.15;;
34832;SDS011;55941;50.800;4.342;2022-09-09T12:18:24;10.15;;;1.75;;
34832;SDS011;55941;50.800;4.342;2022-09-09T12:21:16;12.75;;;2.25;;
34832;SDS011;55941;50.800;4.342;2022-09-09T12:31:46;13.98;;;2.72;;
34832;SDS011;55941;50.800;4.342;2022-09-09T12:40:01;9.10;;;2.15;;
34832;SDS011;55941;50.800;4.342;2022-09-09T12:42:43;13.38;;;1.92;;
34832;SDS011;55941;50.800;4.342;2022-09-09T12:45:16;6.03;;;1.55;;
34832;SDS011;55941;50.800;4.342;2022-09-09T12:48:10;10.52;;;1.67;;
34832;SDS011;55941;50.800;4.342;2022-09-09T12:50:37;4.32;;;1.23;;
34832;SDS011;55941;50.800;4.342;2022-09-09T12:53:17;9.63;;;2.20;;
34832;SDS011;55941;50.800;4.342;2022-09-09T12:55:54;11.15;;;2.28;;
34832;SDS011;55941;50.800;4.342;2022-09-09T12:58:23;9.32;;;1.73;;
34832;SDS011;55941;50.800;4.342;2022-09-09T13:00:51;8.90;;;1.85;;
34832;SDS011;55941;50.800;4.342;2022-09-09T13:03:19;10.40;;;1.95;;
34832;SDS011;55941;50.800;4.342;2022-09-09T13:05:46;8.95;;;1.63;;
34832;SDS011;55941;50.800;4.342;2022-09-09T13:08:12;7.25;;;1.80;;
34832;SDS011;55941;50.800;4.342;2022-09-09T13:13:14;8.75;;;1.83;;
34832;SDS011;55941;50.800;4.342;2022-09-09T13:15:48;9.23;;;2.47;;
34832;SDS011;55941;50.800;4.342;2022-09-09T13:18:17;7.97;;;1.63;;
34832;SDS011;55941;50.800;4.342;2022-09-09T13:20:47;8.45;;;1.73;;
34832;SDS011;55941;50.800;4.342;2022-09-09T13:23:13;9.73;;;1.40;;
34832;SDS011;55941;50.800;4.342;2022-09-09T13:25:42;8.32;;;1.85;;
34832;SDS011;55941;50.800;4.342;2022-09-09T13:28:26;7.40;;;1.80;;
34832;SDS011;55941;50.800;4.342;2022-09-09T13:33:29;9.55;;;2.00;;
34832;SDS011;55941;50.800;4.342;2022-09-09T13:35:57;4.63;;;1.30;;
34832;SDS011;55941;50.800;4.342;2022-09-09T13:38:25;11.30;;;1.48;;
34832;SDS011;55941;50.800;4.342;2022-09-09T13:41:03;4.80;;;1.15;;
34832;SDS011;55941;50.800;4.342;2022-09-09T13:43:31;6.50;;;1.33;;
34832;SDS011;55941;50.800;4.342;2022-09-09T13:46:04;9.38;;;1.20;;
34832;SDS011;55941;50.800;4.342;2022-09-09T13:48:57;5.22;;;1.33;;
34832;SDS011;55941;50.800;4.342;2022-09-09T13:51:45;9.00;;;1.10;;
34832;SDS011;55941;50.800;4.342;2022-09-09T13:54:14;4.35;;;1.08;;
34832;SDS011;55941;50.800;4.342;2022-09-09T13:56:42;5.25;;;1.23;;
34832;SDS011;55941;50.800;4.342;2022-09-09T13:59:12;6.80;;;1.10;;
34832;SDS011;55941;50.800;4.342;2022-09-09T14:01:46;5.68;;;1.30;;
34832;SDS011;55941;50.800;4.342;2022-09-09T14:04:14;4.82;;;1.23;;
34832;SDS011;55941;50.800;4.342;2022-09-09T14:06:40;7.68;;;1.13;;
34832;SDS011;55941;50.800;4.342;2022-09-09T14:09:10;5.13;;;1.33;;
34832;SDS011;55941;50.800;4.342;2022-09-09T14:11:38;5.82;;;1.55;;
34832;SDS011;55941;50.800;4.342;2022-09-09T14:14:05;15.70;;;1.75;;
34832;SDS011;55941;50.800;4.342;2022-09-09T14:16:31;5.65;;;1.38;;
34832;SDS011;55941;50.800;4.342;2022-09-09T14:18:56;9.48;;;1.70;;
34832;SDS011;55941;50.800;4.342;2022-09-09T14:21:23;9.65;;;1.58;;
34832;SDS011;55941;50.800;4.342;2022-09-09T14:23:49;7.85;;;1.45;;
34832;SDS011;55941;50.800;4.342;2022-09-09T14:26:15;8.88;;;1.75;;
34832;SDS011;55941;50.800;4.342;2022-09-09T14:28:40;10.63;;;1.63;;
34832;SDS011;55941;50.800;4.342;2022-09-09T14:31:06;11.38;;;2.20;;
34832;SDS011;55941;50.800;4.342;2022-09-09T14:33:32;9.95;;;2.05;;
34832;SDS011;55941;50.800;4.342;2022-09-09T14:36:01;15.30;;;2.10;;
34832;SDS011;55941;50.800;4.342;2022-09-09T14:38:28;5.07;;;1.58;;
34832;SDS011;55941;50.800;4.342;2022-09-09T14:40:55;9.45;;;1.80;;
34832;SDS011;55941;50.800;4.342;2022-09-09T14:43:21;4.93;;;1.20;;
34832;SDS011;55941;50.800;4.342;2022-09-09T14:45:47;6.35;;;1.77;;
34832;SDS011;55941;50.800;4.342;2022-09-09T14:48:13;6.05;;;1.40;;
34832;SDS011;55941;50.800;4.342;2022-09-09T14:50:40;10.25;;;1.77;;
34832;SDS011;55941;50.800;4.342;2022-09-09T14:53:06;11.70;;;1.23;;
34832;SDS011;55941;50.800;4.342;2022-09-09T14:55:33;8.65;;;2.05;;
34832;SDS011;55941;50.800;4.342;2022-09-09T14:57:59;7.57;;;1.80;;
34832;SDS011;55941;50.800;4.342;2022-09-09T15:00:25;19.33;;;1.77;;
34832;SDS011;55941;50.800;4.342;2022-09-09T15:02:52;4.93;;;1.33;;
34832;SDS011;55941;50.800;4.342;2022-09-09T15:05:18;11.57;;;2.00;;
34832;SDS011;55941;50.800;4.342;2022-09-09T15:07:44;8.30;;;1.75;;
34832;SDS011;55941;50.800;4.342;2022-09-09T15:10:10;9.88;;;1.50;;
34832;SDS011;55941;50.800;4.342;2022-09-09T15:12:36;7.80;;;1.70;;
34832;SDS011;55941;50.800;4.342;2022-09-09T15:15:03;6.07;;;1.40;;
34832;SDS011;55941;50.800;4.342;2022-09-09T15:17:29;7.05;;;1.65;;
34832;SDS011;55941;50.800;4.342;2022-09-09T15:19:55;11.18;;;1.63;;
34832;SDS011;55941;50.800;4.342;2022-09-09T15:22:21;6.50;;;1.30;;
34832;SDS011;55941;50.800;4.342;2022-09-09T15:24:47;4.13;;;1.20;;
34832;SDS011;55941;50.800;4.342;2022-09-09T15:27:13;8.63;;;1.42;;
34832;SDS011;55941;50.800;4.342;2022-09-09T15:29:39;6.70;;;1.38;;
34832;SDS011;55941;50.800;4.342;2022-09-09T15:32:06;5.95;;;1.80;;
34832;SDS011;55941;50.800;4.342;2022-09-09T15:34:32;7.88;;;1.63;;
34832;SDS011;55941;50.800;4.342;2022-09-09T15:36:58;8.48;;;1.58;;
34832;SDS011;55941;50.800;4.342;2022-09-09T15:39:24;6.38;;;1.50;;
34832;SDS011;55941;50.800;4.342;2022-09-09T15:41:50;9.98;;;1.40;;
34832;SDS011;55941;50.800;4.342;2022-09-09T15:44:16;7.38;;;1.70;;
34832;SDS011;55941;50.800;4.342;2022-09-09T15:49:11;12.18;;;1.65;;
34832;SDS011;55941;50.800;4.342;2022-09-09T15:51:40;10.18;;;1.73;;
34832;SDS011;55941;50.800;4.342;2022-09-09T15:54:11;6.18;;;1.58;;
34832;SDS011;55941;50.800;4.342;2022-09-09T15:56:46;13.13;;;2.13;;
34832;SDS011;55941;50.800;4.342;2022-09-09T15:59:13;11.13;;;1.80;;
34832;SDS011;55941;50.800;4.342;2022-09-09T16:01:39;11.52;;;1.95;;
34832;SDS011;55941;50.800;4.342;2022-09-09T16:04:06;13.30;;;1.83;;
34832;SDS011;55941;50.800;4.342;2022-09-09T16:06:33;7.18;;;1.77;;
34832;SDS011;55941;50.800;4.342;2022-09-09T16:08:59;5.75;;;1.65;;
34832;SDS011;55941;50.800;4.342;2022-09-09T16:11:28;7.43;;;1.50;;
34832;SDS011;55941;50.800;4.342;2022-09-09T16:13:55;4.80;;;1.50;;
34832;SDS011;55941;50.800;4.342;2022-09-09T16:16:23;8.32;;;1.60;;
34832;SDS011;55941;50.800;4.342;2022-09-09T16:18:52;9.45;;;1.92;;
34832;SDS011;55941;50.800;4.342;2022-09-09T16:21:24;11.63;;;2.22;;
34832;SDS011;55941;50.800;4.342;2022-09-09T16:23:54;11.73;;;1.80;;
34832;SDS011;55941;50.800;4.342;2022-09-09T16:26:20;6.13;;;1.50;;
34832;SDS011;55941;50.800;4.342;2022-09-09T16:28:47;13.13;;;2.30;;
34832;SDS011;55941;50.800;4.342;2022-09-09T16:31:14;10.85;;;1.60;;
34832;SDS011;55941;50.800;4.342;2022-09-09T16:33:42;10.85;;;1.95;;
34832;SDS011;55941;50.800;4.342;2022-09-09T16:36:10;6.18;;;1.60;;
34832;SDS011;55941;50.800;4.342;2022-09-09T16:38:38;3.70;;;1.50;;
34832;SDS011;55941;50.800;4.342;2022-09-09T16:41:06;8.27;;;1.70;;
34832;SDS011;55941;50.800;4.342;2022-09-09T16:43:33;8.63;;;1.65;;
34832;SDS011;55941;50.800;4.342;2022-09-09T16:46:02;10.45;;;1.60;;
34832;SDS011;55941;50.800;4.342;2022-09-09T16:48:35;7.22;;;1.83;;
34832;SDS011;55941;50.800;4.342;2022-09-09T16:51:04;8.40;;;2.50;;
34832;SDS011;55941;50.800;4.342;2022-09-09T16:53:32;6.63;;;1.80;;
34832;SDS011;55941;50.800;4.342;2022-09-09T16:55:58;9.68;;;1.73;;
34832;SDS011;55941;50.800;4.342;2022-09-09T16:58:32;7.65;;;1.67;;
34832;SDS011;55941;50.800;4.342;2022-09-09T17:00:58;9.07;;;1.98;;
34832;SDS011;55941;50.800;4.342;2022-09-09T17:03:24;8.43;;;2.00;;
34832;SDS011;55941;50.800;4.342;2022-09-09T17:05:50;10.95;;;2.03;;
34832;SDS011;55941;50.800;4.342;2022-09-09T17:08:15;10.23;;;2.50;;
34832;SDS011;55941;50.800;4.342;2022-09-09T17:10:41;8.80;;;2.65;;
34832;SDS011;55941;50.800;4.342;2022-09-09T17:13:07;12.25;;;2.25;;
34832;SDS011;55941;50.800;4.342;2022-09-09T17:15:33;11.93;;;2.17;;
34832;SDS011;55941;50.800;4.342;2022-09-09T17:18:05;7.00;;;1.95;;
34832;SDS011;55941;50.800;4.342;2022-09-09T17:20:34;8.98;;;1.80;;
34832;SDS011;55941;50.800;4.342;2022-09-09T17:23:01;11.93;;;2.20;;